createdAt,value
2024-03-12T00:00:19.433Z,9.50
2024-03-12T00:02:48.276Z,9.50
2024-03-12T00:05:20.972Z,9.50
2024-03-12T00:07:49.270Z,9.50
2024-03-12T00:10:20.529Z,9.40
2024-03-12T00:12:50.136Z,9.50
2024-03-12T00:15:19.148Z,9.50
2024-03-12T00:17:46.759Z,9.50
2024-03-12T00:20:34.029Z,9.50
2024-03-12T00:23:01.737Z,9.50
2024-03-12T00:25:32.082Z,9.50
2024-03-12T00:28:00.183Z,9.50
2024-03-12T00:30:28.564Z,9.40
2024-03-12T00:32:58.253Z,9.40
2024-03-12T00:35:26.321Z,9.40
2024-03-12T00:37:53.559Z,9.90
2024-03-12T00:40:23.605Z,10.50
2024-03-12T00:42:53.643Z,11.00
2024-03-12T00:45:26.619Z,11.70
2024-03-12T00:47:54.974Z,11.60
2024-03-12T00:50:24.071Z,11.70
2024-03-12T00:52:54.240Z,11.90
2024-03-12T00:55:21.854Z,12.00
2024-03-12T00:57:51.683Z,11.90
2024-03-12T01:00:23.569Z,12.00
2024-03-12T01:02:50.555Z,11.90
2024-03-12T01:05:18.599Z,11.90
2024-03-12T01:07:46.593Z,12.00
2024-03-12T01:10:13.619Z,11.90
2024-03-12T01:12:41.125Z,11.20
2024-03-12T01:15:10.357Z,10.70
2024-03-12T01:17:40.595Z,10.30
2024-03-12T01:20:10.780Z,10.10
2024-03-12T01:22:39.088Z,9.90
2024-03-12T01:25:07.864Z,9.90
2024-03-12T01:27:35.828Z,9.80
2024-03-12T01:30:07.497Z,9.70
2024-03-12T01:32:35.749Z,9.60
2024-03-12T01:35:04.788Z,9.60
2024-03-12T01:37:32.340Z,9.50
2024-03-12T01:39:59.380Z,9.50
2024-03-12T01:42:26.252Z,9.40
2024-03-12T01:44:53.206Z,9.40
2024-03-12T01:47:21.596Z,9.40
2024-03-12T01:49:50.068Z,9.30
2024-03-12T01:52:24.072Z,9.30
2024-03-12T01:54:52.952Z,9.30
2024-03-12T01:57:19.648Z,9.30
2024-03-12T01:59:46.517Z,9.30
2024-03-12T02:02:17.968Z,9.30
2024-03-12T02:04:45.495Z,9.30
2024-03-12T02:07:12.834Z,9.30
2024-03-12T02:09:40.081Z,9.30
2024-03-12T02:12:06.991Z,9.30
2024-03-12T02:14:33.886Z,9.30
2024-03-12T02:17:00.720Z,9.30
2024-03-12T02:19:27.514Z,9.30
2024-03-12T02:21:54.325Z,9.30
2024-03-12T02:24:21.021Z,9.30
2024-03-12T02:26:47.876Z,9.30
2024-03-12T02:29:14.549Z,9.30
2024-03-12T02:31:41.952Z,9.30
2024-03-12T02:34:08.729Z,9.30
2024-03-12T02:36:38.342Z,9.30
2024-03-12T02:39:07.638Z,9.30
2024-03-12T02:41:37.769Z,9.30
2024-03-12T02:44:04.601Z,9.40
2024-03-12T02:46:31.632Z,9.30
2024-03-12T02:48:58.498Z,9.30
2024-03-12T02:51:27.425Z,9.20
2024-03-12T02:53:54.514Z,9.30
2024-03-12T02:56:21.432Z,9.20
2024-03-12T02:58:48.397Z,9.20
2024-03-12T03:01:16.600Z,9.30
2024-03-12T03:03:43.553Z,9.30
2024-03-12T03:06:10.253Z,9.30
2024-03-12T03:08:38.617Z,9.30
2024-03-12T03:11:06.192Z,9.30
2024-03-12T03:13:33.096Z,9.20
2024-03-12T03:16:00.445Z,9.20
2024-03-12T03:18:29.596Z,9.20
2024-03-12T03:20:56.767Z,9.20
2024-03-12T03:23:23.489Z,9.20
2024-03-12T03:25:50.342Z,9.20
2024-03-12T03:28:17.055Z,9.20
2024-03-12T03:30:44.198Z,9.20
2024-03-12T03:33:12.706Z,9.20
2024-03-12T03:35:39.605Z,9.20
2024-03-12T03:38:07.106Z,9.20
2024-03-12T03:40:34.533Z,9.20
2024-03-12T03:43:01.405Z,9.20
2024-03-12T03:45:28.405Z,9.20
2024-03-12T03:47:55.471Z,9.20
2024-03-12T03:50:22.345Z,9.10
2024-03-12T03:52:49.451Z,9.10
2024-03-12T03:55:16.324Z,9.10
2024-03-12T03:57:43.639Z,9.10
2024-03-12T04:00:14.381Z,9.20
2024-03-12T04:02:44.520Z,9.10
2024-03-12T04:05:12.591Z,9.10
2024-03-12T04:07:41.702Z,9.10
2024-03-12T04:10:12.043Z,9.10
2024-03-12T04:12:43.194Z,9.10
2024-03-12T04:15:11.121Z,9.10
2024-03-12T04:17:38.489Z,9.10
2024-03-12T04:20:11.500Z,9.10
2024-03-12T04:22:39.425Z,9.00
2024-03-12T04:25:08.419Z,9.00
2024-03-12T04:27:38.956Z,9.00
2024-03-12T04:30:10.393Z,9.00
2024-03-12T04:32:38.053Z,9.00
2024-03-12T04:35:06.332Z,9.00
2024-03-12T04:37:33.757Z,9.00
2024-03-12T04:40:01.554Z,9.00
2024-03-12T04:42:28.418Z,9.00
2024-03-12T04:44:57.119Z,9.00
2024-03-12T04:47:24.946Z,9.00
2024-03-12T04:49:53.805Z,9.00
2024-03-12T04:52:21.184Z,9.00
2024-03-12T04:54:48.022Z,9.00
2024-03-12T04:57:14.830Z,9.00
2024-03-12T04:59:41.535Z,9.00
2024-03-12T05:02:09.065Z,9.00
2024-03-12T05:04:35.881Z,9.00
2024-03-12T05:07:02.848Z,9.00
2024-03-12T05:09:29.762Z,9.00
2024-03-12T05:11:56.536Z,9.00
2024-03-12T05:14:23.417Z,9.00
2024-03-12T05:16:52.011Z,9.00
2024-03-12T05:19:18.868Z,8.90
2024-03-12T05:21:45.647Z,8.90
2024-03-12T05:24:12.606Z,8.90
2024-03-12T05:26:45.409Z,8.90
2024-03-12T05:29:13.266Z,9.00
2024-03-12T05:31:40.313Z,8.90
2024-03-12T05:34:30.316Z,8.90
2024-03-12T05:37:05.361Z,8.90
2024-03-12T05:40:02.036Z,8.90
2024-03-12T05:42:47.369Z,8.90
2024-03-12T05:45:33.009Z,8.90
2024-03-12T05:48:10.386Z,8.90
2024-03-12T05:50:42.222Z,8.90
2024-03-12T05:53:09.604Z,8.90
2024-03-12T05:55:36.377Z,8.90
2024-03-12T05:58:06.199Z,8.90
2024-03-12T06:00:33.672Z,8.90
2024-03-12T06:03:00.584Z,8.90
2024-03-12T06:05:27.652Z,8.90
2024-03-12T06:07:54.928Z,8.90
2024-03-12T06:10:22.879Z,8.90
2024-03-12T06:12:50.710Z,8.90
2024-03-12T06:15:17.668Z,8.90
2024-03-12T06:17:44.631Z,8.90
2024-03-12T06:20:13.752Z,8.90
2024-03-12T06:22:43.220Z,8.90
2024-03-12T06:25:10.747Z,8.90
2024-03-12T06:27:39.381Z,8.90
2024-03-12T06:30:09.672Z,8.90
2024-03-12T06:32:36.768Z,8.90
2024-03-12T06:35:03.788Z,8.90
2024-03-12T06:37:30.760Z,8.90
2024-03-12T06:39:58.984Z,8.80
2024-03-12T06:42:30.922Z,8.80
2024-03-12T06:44:58.374Z,8.80
2024-03-12T06:47:28.033Z,8.80
2024-03-12T06:49:55.512Z,8.90
2024-03-12T06:52:27.618Z,8.80
2024-03-12T06:54:54.624Z,8.80
2024-03-12T06:57:23.286Z,8.80
2024-03-12T06:59:50.292Z,8.80
2024-03-12T07:02:21.555Z,8.70
2024-03-12T07:04:49.322Z,8.70
2024-03-12T07:07:23.123Z,8.70
2024-03-12T07:09:52.221Z,8.70
2024-03-12T07:12:19.856Z,8.60
2024-03-12T07:14:55.471Z,8.60
2024-03-12T07:17:23.071Z,8.60
2024-03-12T07:19:50.809Z,8.60
2024-03-12T07:22:21.404Z,8.60
2024-03-12T07:24:48.659Z,8.60
2024-03-12T07:27:15.568Z,8.60
2024-03-12T07:29:45.342Z,8.60
2024-03-12T07:32:14.386Z,8.60
2024-03-12T07:34:41.467Z,8.70
2024-03-12T07:37:08.306Z,8.70
2024-03-12T07:39:38.202Z,8.70
2024-03-12T07:42:14.552Z,8.70
2024-03-12T07:44:42.428Z,8.70
2024-03-12T07:47:11.186Z,8.70
2024-03-12T07:49:38.470Z,8.70
2024-03-12T07:52:06.937Z,8.70
2024-03-12T07:54:34.691Z,8.80
2024-03-12T07:57:01.942Z,8.80
2024-03-12T07:59:32.514Z,8.80
2024-03-12T08:01:59.699Z,8.80
2024-03-12T08:04:27.203Z,8.80
2024-03-12T08:06:54.519Z,8.80
2024-03-12T08:09:21.427Z,8.80
2024-03-12T08:11:49.132Z,8.90
2024-03-12T08:14:17.002Z,8.90
2024-03-12T08:16:43.771Z,8.90
2024-03-12T08:19:13.991Z,8.90
2024-03-12T08:21:40.996Z,8.90
2024-03-12T08:24:08.906Z,9.00
2024-03-12T08:26:35.669Z,9.00
2024-03-12T08:29:03.310Z,9.00
2024-03-12T08:31:33.609Z,9.00
2024-03-12T08:34:10.544Z,9.00
2024-03-12T08:36:37.432Z,9.10
2024-03-12T08:39:05.998Z,9.10
2024-03-12T08:41:34.242Z,9.00
2024-03-12T08:44:02.158Z,9.00
2024-03-12T08:46:29.467Z,9.00
2024-03-12T08:48:56.259Z,9.60
2024-03-12T08:51:25.064Z,10.50
2024-03-12T08:53:52.325Z,11.10
2024-03-12T08:56:22.242Z,11.40
2024-03-12T08:58:50.255Z,11.10
2024-03-12T09:01:19.365Z,10.40
2024-03-12T09:03:47.571Z,9.90
2024-03-12T09:06:15.266Z,9.60
2024-03-12T09:08:47.604Z,9.50
2024-03-12T09:11:22.460Z,9.40
2024-03-12T09:13:51.739Z,9.30
2024-03-12T09:16:18.569Z,9.30
2024-03-12T09:18:48.797Z,9.30
2024-03-12T09:21:16.037Z,9.30
2024-03-12T09:23:53.499Z,9.20
2024-03-12T09:26:31.771Z,9.30
2024-03-12T09:28:59.163Z,9.20
2024-03-12T09:31:26.579Z,9.20
2024-03-12T09:33:54.038Z,9.20
2024-03-12T09:36:21.916Z,9.20
2024-03-12T09:38:51.693Z,9.20
2024-03-12T09:41:21.473Z,9.20
2024-03-12T09:43:48.325Z,9.30
2024-03-12T09:46:17.492Z,9.30
2024-03-12T09:48:45.980Z,9.30
2024-03-12T09:51:13.327Z,9.30
2024-03-12T09:53:42.275Z,9.30
2024-03-12T09:56:11.581Z,9.30
2024-03-12T09:58:39.063Z,9.30
2024-03-12T10:01:07.263Z,9.30
2024-03-12T10:03:37.286Z,9.30
2024-03-12T10:06:04.660Z,9.20
2024-03-12T10:08:32.746Z,9.30
2024-03-12T10:11:03.263Z,9.30
2024-03-12T10:13:30.464Z,9.30
2024-03-12T10:16:01.677Z,9.30
2024-03-12T10:18:33.043Z,9.30
2024-03-12T10:21:04.005Z,9.30
2024-03-12T10:23:37.176Z,9.40
2024-03-12T10:26:18.544Z,9.40
2024-03-12T10:28:47.047Z,9.40
2024-03-12T10:31:15.594Z,9.40
2024-03-12T10:33:50.214Z,9.40
2024-03-12T10:36:34.329Z,9.40
2024-03-12T10:39:07.451Z,9.30
2024-03-12T10:41:34.770Z,9.30
2024-03-12T10:44:11.616Z,9.40
2024-03-12T10:46:49.717Z,9.40
2024-03-12T10:49:18.742Z,9.40
2024-03-12T10:51:46.094Z,9.40
2024-03-12T10:54:23.060Z,9.40
2024-03-12T10:56:53.390Z,9.50
2024-03-12T10:59:22.552Z,9.50
2024-03-12T11:01:49.765Z,9.60
2024-03-12T11:04:17.105Z,9.60
2024-03-12T11:06:46.530Z,9.60
2024-03-12T11:09:22.113Z,9.50
2024-03-12T11:11:50.502Z,9.50
2024-03-12T11:14:17.484Z,9.60
2024-03-12T11:16:44.388Z,9.60
2024-03-12T11:19:26.649Z,9.60
2024-03-12T11:21:54.068Z,9.60
2024-03-12T11:24:28.086Z,9.70
2024-03-12T11:26:56.101Z,9.70
2024-03-12T11:30:00.554Z,9.70
2024-03-12T11:32:30.570Z,9.80
2024-03-12T11:34:57.626Z,9.90
2024-03-12T11:37:25.553Z,10.00
2024-03-12T11:40:50.265Z,10.00
2024-03-12T11:43:42.818Z,10.00
2024-03-12T11:46:40.832Z,10.00
2024-03-12T11:49:33.504Z,10.00
2024-03-12T11:52:00.579Z,9.90
2024-03-12T11:54:48.867Z,9.90
2024-03-12T11:57:31.182Z,9.80
2024-03-12T11:59:59.834Z,9.80
2024-03-12T12:02:28.089Z,9.80
2024-03-12T12:04:56.689Z,9.80
2024-03-12T12:07:25.532Z,9.80
2024-03-12T12:09:53.853Z,9.90
2024-03-12T12:12:21.595Z,9.90
2024-03-12T12:14:49.545Z,9.90
2024-03-12T12:17:24.964Z,9.90
2024-03-12T12:20:22.387Z,10.00
2024-03-12T12:22:50.904Z,10.10
2024-03-12T12:25:19.854Z,10.20
2024-03-12T12:27:47.548Z,10.20
2024-03-12T12:30:16.425Z,10.30
2024-03-12T12:32:44.625Z,10.30
2024-03-12T12:35:15.238Z,10.30
2024-03-12T12:37:47.951Z,10.30
2024-03-12T12:40:18.593Z,10.30
2024-03-12T12:42:47.139Z,10.30
2024-03-12T12:45:14.928Z,10.30
2024-03-12T12:47:49.896Z,10.30
2024-03-12T12:50:31.068Z,10.30
2024-03-12T12:53:03.553Z,10.20
2024-03-12T12:55:31.216Z,10.30
2024-03-12T12:58:09.531Z,10.20
2024-03-12T13:00:42.178Z,10.20
2024-03-12T13:03:20.080Z,10.20
2024-03-12T13:05:47.935Z,10.20
2024-03-12T13:08:28.011Z,10.20
2024-03-12T13:10:57.463Z,10.20
2024-03-12T13:13:26.661Z,10.20
2024-03-12T13:15:53.598Z,10.20
2024-03-12T13:18:20.537Z,10.20
2024-03-12T13:20:50.868Z,10.20
2024-03-12T13:23:17.616Z,10.20
2024-03-12T13:25:46.415Z,10.20
2024-03-12T13:28:16.043Z,10.20
2024-03-12T13:30:43.568Z,10.20
2024-03-12T13:33:10.708Z,10.20
2024-03-12T13:35:37.504Z,10.20
2024-03-12T13:38:05.382Z,10.20
2024-03-12T13:40:32.309Z,10.20
2024-03-12T13:42:59.293Z,10.20
2024-03-12T13:45:26.039Z,10.30
2024-03-12T13:47:53.217Z,10.30
2024-03-12T13:50:20.052Z,10.40
2024-03-12T13:52:48.174Z,10.50
2024-03-12T13:55:15.262Z,10.60
2024-03-12T13:57:42.852Z,10.60
2024-03-12T14:00:11.166Z,10.70
2024-03-12T14:02:40.281Z,10.60
2024-03-12T14:05:09.193Z,10.70
2024-03-12T14:07:36.182Z,10.70
2024-03-12T14:10:08.950Z,10.60
2024-03-12T14:12:36.927Z,10.60
2024-03-12T14:15:04.874Z,10.60
2024-03-12T14:17:32.250Z,10.60
2024-03-12T14:19:59.112Z,10.60
2024-03-12T14:22:26.463Z,10.60
2024-03-12T14:24:53.318Z,10.60
2024-03-12T14:27:20.267Z,10.60
2024-03-12T14:29:47.601Z,10.60
2024-03-12T14:32:14.308Z,10.60
2024-03-12T14:34:41.292Z,10.50
2024-03-12T14:37:08.149Z,10.60
2024-03-12T14:39:35.333Z,10.60
2024-03-12T14:42:02.632Z,10.60
2024-03-12T14:44:29.535Z,10.60
2024-03-12T14:46:57.974Z,10.50
2024-03-12T14:49:28.421Z,10.50
2024-03-12T14:52:00.359Z,10.50
2024-03-12T14:54:27.312Z,10.60
2024-03-12T14:56:54.082Z,10.60
2024-03-12T14:59:21.237Z,10.60
2024-03-12T15:01:48.216Z,10.70
2024-03-12T15:04:15.333Z,10.70
2024-03-12T15:06:44.430Z,10.70
2024-03-12T15:09:14.789Z,10.70
2024-03-12T15:11:47.725Z,10.70
2024-03-12T15:14:16.889Z,10.70
2024-03-12T15:16:43.598Z,10.70
2024-03-12T15:19:10.329Z,10.70
2024-03-12T15:21:39.595Z,10.70
2024-03-12T15:24:07.991Z,10.70
2024-03-12T15:26:35.254Z,10.70
2024-03-12T15:29:02.874Z,10.70
2024-03-12T15:31:30.275Z,10.70
2024-03-12T15:33:57.734Z,10.80
2024-03-12T15:36:27.600Z,10.80
2024-03-12T15:38:54.510Z,10.80
2024-03-12T15:41:21.510Z,10.80
2024-03-12T15:43:48.497Z,10.80
2024-03-12T15:46:20.576Z,10.70
2024-03-12T15:48:48.756Z,10.70
2024-03-12T15:51:16.218Z,10.70
2024-03-12T15:53:43.379Z,10.70
2024-03-12T15:56:36.955Z,10.70
2024-03-12T15:59:03.428Z,10.60
2024-03-12T16:01:31.186Z,10.70
2024-03-12T16:04:00.622Z,10.60
2024-03-12T16:06:29.280Z,10.60
2024-03-12T16:08:56.161Z,10.60
2024-03-12T16:11:23.431Z,10.60
2024-03-12T16:13:50.254Z,10.60
2024-03-12T16:16:17.045Z,10.60
2024-03-12T16:18:44.049Z,10.60
2024-03-12T16:21:10.872Z,10.60
2024-03-12T16:23:37.711Z,10.60
2024-03-12T16:26:05.242Z,10.60
2024-03-12T16:28:32.225Z,10.60
2024-03-12T16:30:59.597Z,10.60
2024-03-12T16:33:26.565Z,10.50
2024-03-12T16:35:53.337Z,10.50
2024-03-12T16:38:22.820Z,10.50
2024-03-12T16:40:49.903Z,10.50
2024-03-12T16:43:17.656Z,10.50
2024-03-12T16:45:44.693Z,10.50
2024-03-12T16:48:11.735Z,10.50
2024-03-12T16:50:38.790Z,10.50
2024-03-12T16:53:05.628Z,10.50
2024-03-12T16:55:33.358Z,10.50
2024-03-12T16:58:00.464Z,10.40
2024-03-12T17:00:27.428Z,10.40
2024-03-12T17:02:54.685Z,10.50
2024-03-12T17:05:25.041Z,10.50
2024-03-12T17:07:54.384Z,10.40
2024-03-12T17:10:24.397Z,10.40
2024-03-12T17:12:52.184Z,10.40
2024-03-12T17:15:21.584Z,10.40
2024-03-12T17:17:48.995Z,10.40
2024-03-12T17:20:16.312Z,10.30
2024-03-12T17:22:43.698Z,10.30
2024-03-12T17:25:11.725Z,10.30
2024-03-12T17:27:43.178Z,10.30
2024-03-12T17:30:12.131Z,10.30
2024-03-12T17:32:41.597Z,10.30
2024-03-12T17:35:13.011Z,10.30
2024-03-12T17:37:43.442Z,10.30
2024-03-12T17:40:15.669Z,10.30
2024-03-12T17:42:44.072Z,10.30
2024-03-12T17:45:16.396Z,10.30
2024-03-12T17:47:50.160Z,10.30
2024-03-12T17:50:19.123Z,10.30
2024-03-12T17:52:51.300Z,10.30
2024-03-12T17:55:19.672Z,10.40
2024-03-12T17:57:47.371Z,10.40
2024-03-12T18:00:16.069Z,10.40
2024-03-12T18:02:43.379Z,10.40
2024-03-12T18:05:16.997Z,10.40
2024-03-12T18:07:46.175Z,10.40
2024-03-12T18:10:17.944Z,10.40
2024-03-12T18:12:46.727Z,10.40
2024-03-12T18:15:18.466Z,10.40
2024-03-12T18:17:46.237Z,10.30
2024-03-12T18:20:21.292Z,10.30
2024-03-12T18:22:48.908Z,10.30
2024-03-12T18:25:16.333Z,10.30
2024-03-12T18:27:46.417Z,10.30
2024-03-12T18:30:13.873Z,10.30
2024-03-12T18:32:40.765Z,10.30
2024-03-12T18:35:11.673Z,10.30
2024-03-12T18:37:39.960Z,10.30
2024-03-12T18:40:14.526Z,10.30
2024-03-12T18:42:42.612Z,10.30
2024-03-12T18:45:20.055Z,10.20
2024-03-12T18:47:49.349Z,10.30
2024-03-12T18:50:17.157Z,10.20
2024-03-12T18:52:45.772Z,10.30
2024-03-12T18:55:13.439Z,10.20
2024-03-12T18:57:45.280Z,10.20
2024-03-12T19:00:20.032Z,10.20
2024-03-12T19:02:48.807Z,10.20
2024-03-12T19:05:19.350Z,10.20
2024-03-12T19:07:48.025Z,10.20
2024-03-12T19:10:30.957Z,10.20
2024-03-12T19:15:44.221Z,10.10
2024-03-12T19:18:32.025Z,10.10
2024-03-12T19:20:58.843Z,10.10
2024-03-12T19:23:25.925Z,10.10
2024-03-12T19:25:52.704Z,10.10
2024-03-12T19:28:19.464Z,10.10
2024-03-12T19:30:46.941Z,10.10
2024-03-12T19:33:18.153Z,10.10
2024-03-12T19:35:45.555Z,10.10
2024-03-12T19:38:12.720Z,10.10
2024-03-12T19:40:39.937Z,10.10
2024-03-12T19:43:07.061Z,10.00
2024-03-12T19:45:34.901Z,10.00
2024-03-12T19:48:02.292Z,10.10
2024-03-12T19:50:30.218Z,10.10
2024-03-12T19:52:57.605Z,10.00
2024-03-12T19:55:26.697Z,10.00
2024-03-12T19:57:57.907Z,10.00
2024-03-12T20:00:27.045Z,10.00
2024-03-12T20:02:57.826Z,10.00
2024-03-12T20:05:31.671Z,10.00
2024-03-12T20:08:03.050Z,10.00
2024-03-12T20:10:30.172Z,10.00
2024-03-12T20:12:57.215Z,10.00
2024-03-12T20:15:24.395Z,10.00
2024-03-12T20:17:52.133Z,10.00
2024-03-12T20:20:19.064Z,9.90
2024-03-12T20:22:52.816Z,9.90
2024-03-12T20:25:20.811Z,9.90
2024-03-12T20:27:52.911Z,9.90
2024-03-12T20:30:22.854Z,9.90
2024-03-12T20:32:53.228Z,9.90
2024-03-12T20:35:20.197Z,9.90
2024-03-12T20:37:48.781Z,9.90
2024-03-12T20:40:16.198Z,9.90
2024-03-12T20:42:43.639Z,9.80
2024-03-12T20:45:11.484Z,9.80
2024-03-12T20:47:39.701Z,9.80
2024-03-12T20:50:08.413Z,9.80
2024-03-12T20:52:40.803Z,9.80
2024-03-12T20:55:08.474Z,9.80
2024-03-12T20:57:35.315Z,9.80
2024-03-12T21:00:02.541Z,9.80
2024-03-12T21:02:29.277Z,9.80
2024-03-12T21:04:56.730Z,9.70
2024-03-12T21:07:23.876Z,9.70
2024-03-12T21:09:52.345Z,9.70
2024-03-12T21:12:20.948Z,9.70
2024-03-12T21:14:47.783Z,9.70
2024-03-12T21:17:14.615Z,9.70
2024-03-12T21:19:41.315Z,9.70
2024-03-12T21:22:09.493Z,9.70
2024-03-12T21:24:37.569Z,9.70
2024-03-12T21:27:04.761Z,9.70
2024-03-12T21:29:32.157Z,9.70
2024-03-12T21:31:59.069Z,9.70
2024-03-12T21:34:26.250Z,9.70
2024-03-12T21:36:53.068Z,9.70
2024-03-12T21:39:23.182Z,9.70
2024-03-12T21:41:49.971Z,9.70
2024-03-12T21:44:20.080Z,9.70
2024-03-12T21:46:51.351Z,9.70
2024-03-12T21:49:18.502Z,9.70
2024-03-12T21:51:45.317Z,9.70
2024-03-12T21:54:12.135Z,9.70
2024-03-12T21:56:38.911Z,9.70
2024-03-12T21:59:05.661Z,9.70
2024-03-12T22:01:32.631Z,9.70
2024-03-12T22:03:59.973Z,9.70
2024-03-12T22:06:26.908Z,9.70
2024-03-12T22:08:55.534Z,9.70
2024-03-12T22:11:22.636Z,9.70
2024-03-12T22:13:49.470Z,9.70
2024-03-12T22:16:17.674Z,9.70
2024-03-12T22:18:45.599Z,9.70
2024-03-12T22:21:12.790Z,9.70
2024-03-12T22:23:40.533Z,9.60
2024-03-12T22:26:08.271Z,9.60
2024-03-12T22:28:37.198Z,9.60
2024-03-12T22:31:04.302Z,9.60
2024-03-12T22:33:31.522Z,9.60
2024-03-12T22:35:58.233Z,9.60
2024-03-12T22:38:26.175Z,9.70
2024-03-12T22:40:54.549Z,9.70
2024-03-12T22:43:23.724Z,9.70
2024-03-12T22:45:50.587Z,9.70
2024-03-12T22:48:19.836Z,9.60
2024-03-12T22:50:47.572Z,9.60
2024-03-12T22:53:17.519Z,9.60
2024-03-12T22:55:44.729Z,9.60
2024-03-12T22:58:11.717Z,9.60
2024-03-12T23:00:38.805Z,9.60
2024-03-12T23:03:06.418Z,9.60
2024-03-12T23:05:36.626Z,9.60
2024-03-12T23:08:07.525Z,9.50
2024-03-12T23:10:36.107Z,9.50
2024-03-12T23:13:04.935Z,9.50
2024-03-12T23:15:32.529Z,9.80
2024-03-12T23:17:59.477Z,10.20
2024-03-12T23:20:28.083Z,10.30
2024-03-12T23:22:54.976Z,10.50
2024-03-12T23:25:21.940Z,10.70
2024-03-12T23:27:50.194Z,10.80
2024-03-12T23:30:18.226Z,10.90
2024-03-12T23:32:45.404Z,10.90
2024-03-12T23:35:12.510Z,10.90
2024-03-12T23:37:41.815Z,10.80
2024-03-12T23:40:09.122Z,10.80
2024-03-12T23:42:36.731Z,10.90
2024-03-12T23:45:03.757Z,10.70
2024-03-12T23:47:30.494Z,10.40
2024-03-12T23:49:58.227Z,10.20
2024-03-12T23:52:25.401Z,10.00
2024-03-12T23:54:52.639Z,9.90
2024-03-12T23:57:19.365Z,9.80
2024-03-12T23:59:46.247Z,9.70
